メインページ
METAR-TAF:

METAR-TAF

空港 :

ノイバイ国際空港

ハノイ, ベトナム

緯度: 21-01N, 経度: 105-48E, 海抜: 6m

現時点の気象観測

当レポートは49分前の10:30(UTC)に作成
南東の風 9kt
気温 27°C
湿度 74%
気圧 1010 hPa
視程10km以上
1,500メートル以下は雲なし、積乱雲なし

METAR: VVNB 141030Z 14009KT CAVOK 27/22 Q1010 NOSIG

時間: 18:19 (11:19 UTC)

予報

当レポートは6時間19分前の05:00(UTC)に作成
予報は14日の 06時(UTC)から 15日の 06時(UTC)まで有効
南東の風 5kt
視程: 7000m
高度1300ftの雲は散在している
高度5000ftの千切れ雲あり
14日の 15時(UTC)から 14日の 16時(UTC)まで徐々に
視程: 4000m
14日の 20時(UTC)から 15日の 01時(UTC)まで一時的に
視程: 2000m
高度800ftの雲は散在している
高度4000ftの千切れ雲あり
小雨, 靄
15日の 02時(UTC)から 15日の 03時(UTC)まで徐々に
視程: 6000m

TAF: VVNB 140500Z 1406/1506 13005KT 7000 SCT013 BKN050 BECMG 1415/1416 4000 BR TEMPO 1420/1501 2000 -RA BR SCT008 BKN040 BECMG 1502/1503 6000 NSW

4,000以上の空港の気象観測と天気予報(METAR報とTAF報)

利用可能な観測所は地図上に黄色い丸と赤い丸で示す。

丸の上にカーソルを重ねると観測所名を参照できる。

次にクリックすると気象観測と天気予報を参照できる。

マップの切り替え:黒色「×」印の緑ボタンをクリックして拡大、「-」印の緑ボタンをクリックして縮小、緑色の三角印をクリックして隣りの地図に切り替え


METAR-TAF: